createdAt,value
2022-08-26T00:02:11.628Z,22.30
2022-08-26T00:04:40.221Z,22.18
2022-08-26T00:07:08.589Z,22.34
2022-08-26T00:09:40.234Z,22.33
2022-08-26T00:12:12.292Z,22.29
2022-08-26T00:14:41.718Z,22.24
2022-08-26T00:17:10.571Z,22.11
2022-08-26T00:19:39.404Z,22.16
2022-08-26T00:22:08.806Z,22.11
2022-08-26T00:24:36.866Z,22.10
2022-08-26T00:27:06.541Z,22.01
2022-08-26T00:29:37.460Z,22.07
2022-08-26T00:32:06.847Z,22.07
2022-08-26T00:34:35.401Z,22.06
2022-08-26T00:37:09.451Z,22.04
2022-08-26T00:39:41.256Z,22.03
2022-08-26T00:42:09.561Z,22.01
2022-08-26T00:44:40.013Z,22.00
2022-08-26T00:47:15.181Z,22.04
2022-08-26T00:49:47.606Z,22.07
2022-08-26T00:52:21.862Z,21.95
2022-08-26T00:54:58.281Z,21.99
2022-08-26T00:57:28.000Z,21.96
2022-08-26T01:00:01.341Z,21.76
2022-08-26T01:02:30.215Z,21.80
2022-08-26T01:05:01.477Z,21.83
2022-08-26T01:07:34.737Z,21.87
2022-08-26T01:10:06.965Z,21.60
2022-08-26T01:12:41.276Z,21.75
2022-08-26T01:15:14.948Z,21.79
2022-08-26T01:17:43.935Z,21.88
2022-08-26T01:20:24.309Z,21.85
2022-08-26T01:22:57.854Z,21.83
2022-08-26T01:25:29.154Z,21.83
2022-08-26T01:28:00.260Z,21.78
2022-08-26T01:30:31.322Z,21.79
2022-08-26T01:33:02.369Z,21.76
2022-08-26T01:35:30.583Z,21.73
2022-08-26T01:38:02.385Z,21.72
2022-08-26T01:40:37.782Z,21.76
2022-08-26T01:43:09.660Z,21.77
2022-08-26T01:45:40.874Z,21.77
2022-08-26T01:48:16.763Z,21.67
2022-08-26T01:50:46.696Z,21.83
2022-08-26T01:53:19.013Z,21.71
2022-08-26T01:55:54.307Z,21.72
2022-08-26T01:58:26.040Z,21.78
2022-08-26T02:00:54.887Z,21.90
2022-08-26T02:03:23.826Z,21.90
2022-08-26T02:05:55.776Z,21.86
2022-08-26T02:08:29.553Z,21.86
2022-08-26T02:10:58.773Z,21.82
2022-08-26T02:13:30.174Z,21.74
2022-08-26T02:16:00.843Z,21.75
2022-08-26T02:18:31.101Z,21.71
2022-08-26T02:20:59.203Z,21.75
2022-08-26T02:23:29.012Z,21.78
2022-08-26T02:26:03.800Z,21.72
2022-08-26T02:28:38.961Z,21.74
2022-08-26T02:31:08.029Z,21.76
2022-08-26T02:33:38.271Z,21.65
2022-08-26T02:36:12.201Z,21.62
2022-08-26T02:38:43.248Z,21.63
2022-08-26T02:41:11.436Z,21.65
2022-08-26T02:43:39.817Z,21.61
2022-08-26T02:46:08.100Z,21.60
2022-08-26T02:48:36.844Z,21.65
2022-08-26T02:51:05.619Z,21.62
2022-08-26T02:53:35.552Z,21.63
2022-08-26T02:56:09.562Z,21.55
2022-08-26T02:58:38.199Z,21.62
2022-08-26T03:01:06.590Z,21.59
2022-08-26T03:03:34.869Z,21.53
2022-08-26T03:06:03.068Z,21.46
2022-08-26T03:08:31.121Z,21.52
2022-08-26T03:10:59.536Z,21.47
2022-08-26T03:13:31.503Z,21.46
2022-08-26T03:16:02.219Z,21.49
2022-08-26T03:18:30.626Z,21.44
2022-08-26T03:20:58.999Z,21.41
2022-08-26T03:23:27.184Z,21.41
2022-08-26T03:25:56.707Z,21.39
2022-08-26T03:28:27.240Z,21.39
2022-08-26T03:30:56.131Z,21.45
2022-08-26T03:33:24.649Z,21.41
2022-08-26T03:35:53.875Z,21.37
2022-08-26T03:38:25.363Z,21.24
2022-08-26T03:40:53.860Z,21.30
2022-08-26T03:43:22.458Z,21.31
2022-08-26T03:45:51.318Z,21.30
2022-08-26T03:48:22.154Z,21.19
2022-08-26T03:50:50.577Z,21.31
2022-08-26T03:53:20.586Z,21.24
2022-08-26T03:55:52.045Z,21.14
2022-08-26T03:58:21.286Z,21.17
2022-08-26T04:00:49.488Z,21.14
2022-08-26T04:03:39.480Z,20.75
2022-08-26T04:06:08.350Z,21.08
2022-08-26T04:08:38.029Z,21.06
2022-08-26T04:11:07.998Z,20.93
2022-08-26T04:13:38.273Z,20.95
2022-08-26T04:16:06.803Z,21.03
2022-08-26T04:18:38.344Z,21.02
2022-08-26T04:21:15.531Z,21.04
2022-08-26T04:23:47.124Z,21.07
2022-08-26T04:26:15.411Z,21.02
2022-08-26T04:28:43.735Z,20.84
2022-08-26T04:31:14.811Z,20.94
2022-08-26T04:33:46.586Z,20.86
2022-08-26T04:36:14.854Z,20.85
2022-08-26T04:38:43.400Z,20.87
2022-08-26T04:41:15.318Z,20.87
2022-08-26T04:43:46.603Z,20.90
2022-08-26T04:46:18.745Z,20.88
2022-08-26T04:48:49.172Z,20.87
2022-08-26T04:51:17.364Z,20.91
2022-08-26T04:53:45.501Z,20.92
2022-08-26T04:56:14.039Z,20.82
2022-08-26T04:58:42.388Z,20.90
2022-08-26T05:01:10.523Z,20.85
2022-08-26T05:03:39.207Z,20.85
2022-08-26T05:06:12.377Z,20.81
2022-08-26T05:08:41.187Z,20.83
2022-08-26T05:11:10.667Z,20.85
2022-08-26T05:13:39.580Z,20.81
2022-08-26T05:16:11.603Z,20.80
2022-08-26T05:18:41.456Z,20.78
2022-08-26T05:21:20.207Z,20.76
2022-08-26T05:23:50.644Z,20.66
2022-08-26T05:26:23.102Z,20.90
2022-08-26T05:28:54.872Z,20.93
2022-08-26T05:31:25.677Z,20.88
2022-08-26T05:33:55.023Z,20.90
2022-08-26T05:36:26.848Z,20.87
2022-08-26T05:38:55.429Z,20.88
2022-08-26T05:41:34.455Z,20.88
2022-08-26T05:44:06.633Z,20.96
2022-08-26T05:46:36.721Z,20.93
2022-08-26T05:49:06.624Z,20.84
2022-08-26T05:51:45.204Z,21.04
2022-08-26T05:54:14.077Z,21.17
2022-08-26T05:56:49.673Z,21.21
2022-08-26T05:59:24.214Z,21.17
2022-08-26T06:01:53.466Z,21.24
2022-08-26T06:04:22.624Z,21.23
2022-08-26T06:06:54.627Z,21.22
2022-08-26T06:09:22.999Z,21.22
2022-08-26T06:11:51.691Z,21.05
2022-08-26T06:14:19.992Z,21.22
2022-08-26T06:16:48.472Z,21.21
2022-08-26T06:19:17.346Z,21.14
2022-08-26T06:21:51.370Z,21.17
2022-08-26T06:24:41.971Z,21.06
2022-08-26T06:27:15.167Z,21.28
2022-08-26T06:29:43.761Z,21.35
2022-08-26T06:32:12.619Z,21.34
2022-08-26T06:34:40.791Z,21.34
2022-08-26T06:37:09.891Z,21.35
2022-08-26T06:39:41.184Z,21.39
2022-08-26T06:42:11.015Z,21.38
2022-08-26T06:44:40.937Z,21.36
2022-08-26T06:47:09.445Z,21.38
2022-08-26T06:49:38.478Z,21.39
2022-08-26T06:52:08.130Z,21.41
2022-08-26T06:54:37.173Z,21.33
2022-08-26T06:57:09.024Z,21.38
2022-08-26T06:59:37.599Z,21.50
2022-08-26T07:02:06.751Z,21.59
2022-08-26T07:04:36.648Z,21.51
2022-08-26T07:07:05.413Z,21.73
2022-08-26T07:09:35.454Z,21.76
2022-08-26T07:12:06.822Z,21.83
2022-08-26T07:14:36.851Z,21.82
2022-08-26T07:17:07.347Z,21.79
2022-08-26T07:19:37.741Z,21.84
2022-08-26T07:22:08.618Z,21.89
2022-08-26T07:24:40.663Z,21.95
2022-08-26T07:27:13.279Z,22.04
2022-08-26T07:29:45.099Z,21.97
2022-08-26T07:32:15.859Z,22.05
2022-08-26T07:34:45.102Z,22.01
2022-08-26T07:37:13.581Z,22.07
2022-08-26T07:39:43.210Z,22.08
2022-08-26T07:42:14.600Z,22.14
2022-08-26T07:44:44.440Z,22.19
2022-08-26T07:47:25.167Z,22.24
2022-08-26T07:49:55.095Z,22.28
2022-08-26T07:52:26.589Z,22.30
2022-08-26T07:54:55.796Z,22.25
2022-08-26T07:57:24.175Z,22.36
2022-08-26T07:59:55.165Z,22.33
2022-08-26T08:02:25.135Z,22.40
2022-08-26T08:04:54.707Z,22.42
2022-08-26T08:07:38.687Z,22.51
2022-08-26T08:10:13.711Z,22.42
2022-08-26T08:12:42.852Z,22.44
2022-08-26T08:15:13.986Z,22.46
2022-08-26T08:17:43.080Z,22.35
2022-08-26T08:20:12.765Z,22.52
2022-08-26T08:22:41.402Z,22.73
2022-08-26T08:25:10.542Z,23.33
2022-08-26T08:27:41.176Z,24.11
2022-08-26T08:30:10.908Z,24.60
2022-08-26T08:32:44.560Z,25.00
2022-08-26T08:35:15.504Z,25.41
2022-08-26T08:37:44.835Z,25.94
2022-08-26T08:40:18.592Z,26.33
2022-08-26T08:45:27.530Z,25.84
2022-08-26T08:47:59.312Z,25.53
2022-08-26T08:50:34.035Z,25.07
2022-08-26T08:53:11.230Z,25.21
2022-08-26T08:55:50.160Z,25.15
2022-08-26T08:58:21.840Z,25.12
2022-08-26T09:00:55.606Z,25.20
2022-08-26T09:03:42.769Z,25.23
2022-08-26T09:06:17.501Z,24.84
2022-08-26T09:08:49.997Z,24.65
2022-08-26T09:11:20.862Z,24.69
2022-08-26T09:13:53.216Z,24.10
2022-08-26T09:16:26.271Z,23.84
2022-08-26T09:19:11.985Z,23.44
2022-08-26T09:21:40.389Z,23.56
2022-08-26T09:24:11.318Z,23.92
2022-08-26T09:26:48.154Z,24.13
2022-08-26T09:29:24.505Z,24.02
2022-08-26T09:31:53.598Z,23.68
2022-08-26T09:34:25.887Z,23.79
2022-08-26T09:36:55.945Z,23.99
2022-08-26T09:39:34.826Z,23.94
2022-08-26T09:42:12.395Z,24.43
2022-08-26T09:44:57.265Z,24.68
2022-08-26T09:47:29.993Z,24.76
2022-08-26T09:50:04.660Z,25.02
2022-08-26T09:52:40.626Z,25.04
2022-08-26T09:55:14.906Z,24.95
2022-08-26T09:57:51.241Z,25.18
2022-08-26T10:00:29.627Z,25.28
2022-08-26T10:02:59.243Z,25.57
2022-08-26T10:05:36.054Z,25.91
2022-08-26T10:08:24.135Z,25.91
2022-08-26T10:10:53.559Z,25.59
2022-08-26T10:13:26.819Z,25.34
2022-08-26T10:16:04.678Z,25.42
2022-08-26T10:18:37.329Z,25.66
2022-08-26T10:21:11.527Z,26.00
2022-08-26T10:23:44.916Z,25.71
2022-08-26T10:26:17.690Z,25.25
2022-08-26T10:28:51.243Z,25.27
2022-08-26T10:31:28.906Z,25.53
2022-08-26T10:34:00.480Z,25.52
2022-08-26T10:37:13.810Z,25.57
2022-08-26T10:39:49.133Z,25.63
2022-08-26T10:42:26.900Z,25.49
2022-08-26T10:45:04.329Z,25.50
2022-08-26T10:47:39.134Z,25.14
2022-08-26T10:50:08.212Z,24.94
2022-08-26T10:52:52.691Z,24.89
2022-08-26T10:55:29.097Z,24.83
2022-08-26T10:58:15.093Z,24.57
2022-08-26T11:01:22.739Z,24.51
2022-08-26T11:04:00.456Z,24.34
2022-08-26T11:06:30.929Z,24.30
2022-08-26T11:09:02.964Z,24.00
2022-08-26T11:11:49.687Z,23.89
2022-08-26T11:14:58.969Z,23.80
2022-08-26T11:17:56.725Z,23.64
2022-08-26T11:20:41.556Z,23.83
2022-08-26T11:23:40.375Z,23.93
2022-08-26T11:26:35.885Z,23.86
2022-08-26T11:29:12.201Z,23.77
2022-08-26T11:31:56.870Z,23.75
2022-08-26T11:34:54.311Z,23.72
2022-08-26T11:37:27.552Z,23.71
2022-08-26T11:39:57.477Z,23.72
2022-08-26T11:42:36.949Z,23.85
2022-08-26T11:45:18.411Z,23.74
2022-08-26T11:47:49.501Z,23.83
2022-08-26T11:50:23.642Z,24.05
2022-08-26T11:52:53.685Z,24.29
2022-08-26T11:55:23.415Z,24.38
2022-08-26T11:57:57.617Z,24.50
2022-08-26T12:00:33.529Z,24.50
2022-08-26T12:03:09.835Z,24.39
2022-08-26T12:05:49.231Z,24.26
2022-08-26T12:08:21.814Z,24.59
2022-08-26T12:10:50.336Z,24.47
2022-08-26T12:13:27.350Z,24.40
2022-08-26T12:15:58.387Z,24.57
2022-08-26T12:18:30.821Z,24.45
2022-08-26T12:21:12.357Z,24.46
2022-08-26T12:23:46.740Z,24.39
2022-08-26T12:26:24.644Z,24.65
2022-08-26T12:28:58.381Z,24.78
2022-08-26T12:31:30.529Z,25.00
2022-08-26T12:34:01.976Z,25.24
2022-08-26T12:36:33.422Z,25.13
2022-08-26T12:39:10.034Z,25.17
2022-08-26T12:41:45.289Z,25.36
2022-08-26T12:44:35.061Z,25.11
2022-08-26T12:47:05.325Z,25.20
2022-08-26T12:49:33.733Z,25.29
2022-08-26T12:52:02.047Z,25.21
2022-08-26T12:54:44.202Z,25.45
2022-08-26T12:57:13.605Z,25.47
2022-08-26T12:59:43.397Z,25.54
2022-08-26T13:02:11.821Z,25.57
2022-08-26T13:04:45.148Z,25.58
2022-08-26T13:07:20.238Z,25.35
2022-08-26T13:09:48.627Z,25.36
2022-08-26T13:12:25.741Z,25.49
2022-08-26T13:14:55.480Z,25.44
2022-08-26T13:17:23.757Z,25.53
2022-08-26T13:19:51.923Z,25.69
2022-08-26T13:22:24.492Z,25.65
2022-08-26T13:24:55.432Z,25.82
2022-08-26T13:27:27.904Z,25.60
2022-08-26T13:29:59.216Z,25.45
2022-08-26T13:32:29.328Z,25.59
2022-08-26T13:34:58.828Z,25.44
2022-08-26T13:37:34.955Z,25.53
2022-08-26T13:40:05.279Z,25.49
2022-08-26T13:42:34.550Z,25.36
2022-08-26T13:45:05.578Z,25.23
2022-08-26T13:47:33.985Z,25.27
2022-08-26T13:50:02.162Z,24.93
2022-08-26T13:52:31.204Z,25.64
2022-08-26T13:55:00.964Z,25.08
2022-08-26T13:57:30.310Z,25.23
2022-08-26T14:00:00.315Z,25.34
2022-08-26T14:02:31.244Z,25.29
2022-08-26T14:04:59.578Z,25.32
2022-08-26T14:07:28.299Z,25.22
2022-08-26T14:09:56.459Z,25.25
2022-08-26T14:12:25.036Z,25.26
2022-08-26T14:14:53.104Z,25.15
2022-08-26T14:17:23.450Z,25.25
2022-08-26T14:19:53.830Z,25.20
2022-08-26T14:22:23.634Z,24.91
2022-08-26T14:24:52.187Z,25.06
2022-08-26T14:27:20.357Z,24.94
2022-08-26T14:29:48.381Z,24.96
2022-08-26T14:32:23.156Z,25.01
2022-08-26T14:34:53.401Z,24.88
2022-08-26T14:37:21.959Z,24.84
2022-08-26T14:39:50.435Z,24.92
2022-08-26T14:42:23.964Z,25.10
2022-08-26T14:44:56.266Z,25.09
2022-08-26T14:47:24.538Z,25.03
2022-08-26T14:49:54.337Z,24.94
2022-08-26T14:52:22.760Z,24.85
2022-08-26T14:54:54.924Z,24.59
2022-08-26T14:57:24.128Z,24.50
2022-08-26T14:59:52.489Z,24.66
2022-08-26T15:02:32.302Z,24.71
2022-08-26T15:05:02.904Z,24.60
2022-08-26T15:07:31.316Z,24.53
2022-08-26T15:09:59.495Z,24.34
2022-08-26T15:12:28.271Z,24.53
2022-08-26T15:14:56.444Z,24.58
2022-08-26T15:17:24.633Z,24.64
2022-08-26T15:19:53.039Z,24.56
2022-08-26T15:22:22.591Z,24.28
2022-08-26T15:24:53.647Z,24.21
2022-08-26T15:27:22.474Z,24.05
2022-08-26T15:29:51.845Z,24.21
2022-08-26T15:32:19.972Z,24.23
2022-08-26T15:34:50.170Z,24.15
2022-08-26T15:37:23.472Z,23.99
2022-08-26T15:39:52.209Z,23.95
2022-08-26T15:42:21.045Z,24.18
2022-08-26T15:44:49.975Z,24.14
2022-08-26T15:47:18.593Z,24.05
2022-08-26T15:49:46.656Z,24.23
2022-08-26T15:52:16.925Z,24.24
2022-08-26T15:54:46.665Z,24.17
2022-08-26T15:57:16.521Z,24.12
2022-08-26T15:59:47.367Z,24.12
2022-08-26T16:02:15.462Z,24.21
2022-08-26T16:04:43.653Z,24.20
2022-08-26T16:07:12.839Z,24.17
2022-08-26T16:09:40.894Z,24.20
2022-08-26T16:12:10.648Z,24.32
2022-08-26T16:14:42.469Z,24.34
2022-08-26T16:17:10.551Z,24.26
2022-08-26T16:19:38.840Z,24.20
2022-08-26T16:22:08.310Z,24.22
2022-08-26T16:24:36.692Z,24.22
2022-08-26T16:27:04.920Z,24.27
2022-08-26T16:29:34.801Z,24.22
2022-08-26T16:32:08.701Z,24.25
2022-08-26T16:34:38.886Z,24.09
2022-08-26T16:37:24.147Z,24.12
2022-08-26T16:39:52.696Z,24.09
2022-08-26T16:42:21.049Z,24.02
2022-08-26T16:44:52.403Z,23.93
2022-08-26T16:47:21.640Z,24.07
2022-08-26T16:49:49.837Z,24.00
2022-08-26T16:52:18.819Z,23.99
2022-08-26T16:54:47.296Z,24.03
2022-08-26T16:57:15.806Z,23.93
2022-08-26T16:59:43.900Z,23.96
2022-08-26T17:02:13.561Z,24.00
2022-08-26T17:04:41.611Z,24.01
2022-08-26T17:07:14.576Z,24.06
2022-08-26T17:09:43.159Z,24.09
2022-08-26T17:12:11.235Z,23.90
2022-08-26T17:14:39.768Z,23.75
2022-08-26T17:17:08.363Z,23.87
2022-08-26T17:19:47.042Z,23.76
2022-08-26T17:22:15.974Z,23.89
2022-08-26T17:24:44.455Z,23.81
2022-08-26T17:27:12.678Z,23.75
2022-08-26T17:29:41.090Z,23.69
2022-08-26T17:32:09.727Z,23.68
2022-08-26T17:34:41.723Z,23.70
2022-08-26T17:37:09.977Z,23.56
2022-08-26T17:39:42.583Z,23.57
2022-08-26T17:42:11.978Z,23.54
2022-08-26T17:44:40.544Z,23.59
2022-08-26T17:47:11.374Z,23.57
2022-08-26T17:49:41.140Z,23.59
2022-08-26T17:52:11.537Z,23.56
2022-08-26T17:54:41.048Z,23.54
2022-08-26T17:57:12.083Z,23.47
2022-08-26T17:59:42.485Z,23.45
2022-08-26T18:02:10.940Z,23.43
2022-08-26T18:04:40.878Z,23.40
2022-08-26T18:07:10.900Z,23.34
2022-08-26T18:09:39.251Z,23.43
2022-08-26T18:12:08.248Z,23.37
2022-08-26T18:14:37.389Z,23.29
2022-08-26T18:17:05.841Z,23.27
2022-08-26T18:19:34.132Z,23.22
2022-08-26T18:22:04.025Z,23.21
2022-08-26T18:24:32.700Z,23.20
2022-08-26T18:27:00.765Z,23.16
2022-08-26T18:29:29.460Z,23.23
2022-08-26T18:31:57.847Z,23.19
2022-08-26T18:34:26.381Z,23.11
2022-08-26T18:37:03.220Z,23.09
2022-08-26T18:39:32.965Z,23.15
2022-08-26T18:42:01.256Z,23.10
2022-08-26T18:44:29.364Z,23.12
2022-08-26T18:46:57.713Z,23.03
2022-08-26T18:49:26.207Z,22.97
2022-08-26T18:51:54.835Z,22.99
2022-08-26T18:54:23.437Z,22.91
2022-08-26T18:56:52.964Z,22.87
2022-08-26T18:59:29.558Z,22.80
2022-08-26T19:01:59.301Z,22.81
2022-08-26T19:04:27.672Z,22.77
2022-08-26T19:06:56.984Z,22.83
2022-08-26T19:09:26.457Z,22.76
2022-08-26T19:14:30.428Z,22.75
2022-08-26T19:16:58.619Z,22.79
2022-08-26T19:19:26.872Z,22.73
2022-08-26T19:21:55.506Z,22.69
2022-08-26T19:24:25.918Z,22.64
2022-08-26T19:27:01.259Z,22.63
2022-08-26T19:29:31.584Z,22.69
2022-08-26T19:32:00.161Z,22.62
2022-08-26T19:34:28.438Z,22.63
2022-08-26T19:36:58.481Z,22.70
2022-08-26T19:39:26.969Z,22.63
2022-08-26T19:41:55.215Z,22.59
2022-08-26T19:44:43.017Z,22.56
2022-08-26T19:47:13.146Z,22.47
2022-08-26T19:49:41.235Z,22.47
2022-08-26T19:52:11.141Z,22.49
2022-08-26T19:54:40.805Z,22.56
2022-08-26T19:57:09.173Z,22.53
2022-08-26T19:59:39.026Z,22.40
2022-08-26T20:02:11.091Z,22.47
2022-08-26T20:04:40.142Z,22.30
2022-08-26T20:07:12.915Z,22.43
2022-08-26T20:09:43.412Z,22.42
2022-08-26T20:12:11.797Z,22.40
2022-08-26T20:14:41.306Z,22.38
2022-08-26T20:17:09.391Z,22.32
2022-08-26T20:19:55.160Z,22.29
2022-08-26T20:22:23.552Z,22.26
2022-08-26T20:24:52.239Z,22.29
2022-08-26T20:27:22.395Z,22.29
2022-08-26T20:29:52.313Z,22.27
2022-08-26T20:32:20.468Z,22.29
2022-08-26T20:34:49.480Z,22.24
2022-08-26T20:37:18.628Z,22.24
2022-08-26T20:39:50.143Z,22.16
2022-08-26T20:42:20.465Z,22.11
2022-08-26T20:44:54.352Z,22.16
2022-08-26T20:47:24.781Z,22.08
2022-08-26T20:49:53.182Z,21.89
2022-08-26T20:52:21.402Z,22.03
2022-08-26T20:54:49.680Z,21.94
2022-08-26T20:57:17.948Z,21.93
2022-08-26T20:59:46.013Z,21.84
2022-08-26T21:02:14.303Z,21.80
2022-08-26T21:04:43.826Z,21.82
2022-08-26T21:07:12.003Z,21.83
2022-08-26T21:09:40.465Z,21.82
2022-08-26T21:12:10.243Z,21.91
2022-08-26T21:14:38.394Z,21.92
2022-08-26T21:17:07.803Z,21.85
2022-08-26T21:19:35.851Z,21.77
2022-08-26T21:22:05.649Z,21.78
2022-08-26T21:24:34.350Z,21.77
2022-08-26T21:27:02.423Z,21.65
2022-08-26T21:29:30.442Z,21.75
2022-08-26T21:31:58.912Z,21.74
2022-08-26T21:34:27.045Z,21.66
2022-08-26T21:36:55.493Z,21.66
2022-08-26T21:39:25.540Z,21.63
2022-08-26T21:41:53.602Z,21.78
2022-08-26T21:44:22.122Z,21.77
2022-08-26T21:46:50.965Z,21.82
2022-08-26T21:49:19.108Z,21.81
2022-08-26T21:51:49.087Z,21.70
2022-08-26T21:54:18.252Z,21.65
2022-08-26T21:56:48.741Z,21.62
2022-08-26T21:59:19.576Z,21.59
2022-08-26T22:01:48.379Z,21.56
2022-08-26T22:04:16.921Z,21.56
2022-08-26T22:06:47.889Z,21.56
2022-08-26T22:09:19.092Z,21.56
2022-08-26T22:11:48.956Z,21.61
2022-08-26T22:14:19.261Z,21.51
2022-08-26T22:16:50.329Z,21.55
2022-08-26T22:19:20.223Z,21.52
2022-08-26T22:21:49.493Z,21.51
2022-08-26T22:24:17.865Z,21.49
2022-08-26T22:26:47.605Z,21.44
2022-08-26T22:29:18.306Z,21.48
2022-08-26T22:31:47.412Z,21.48
2022-08-26T22:34:17.559Z,21.49
2022-08-26T22:36:47.520Z,21.44
2022-08-26T22:39:17.445Z,21.36
2022-08-26T22:41:46.762Z,21.46
2022-08-26T22:44:16.663Z,21.37
2022-08-26T22:46:45.562Z,21.39
2022-08-26T22:49:17.023Z,21.21
2022-08-26T22:51:45.899Z,21.31
2022-08-26T22:54:15.466Z,21.27
2022-08-26T22:56:44.727Z,21.19
2022-08-26T22:59:13.913Z,21.37
2022-08-26T23:01:46.657Z,21.28
2022-08-26T23:04:15.573Z,21.34
2022-08-26T23:06:47.598Z,21.32
2022-08-26T23:09:18.307Z,21.27
2022-08-26T23:11:47.811Z,21.22
2022-08-26T23:14:16.520Z,21.24
2022-08-26T23:16:47.811Z,21.20
2022-08-26T23:19:17.452Z,21.29
2022-08-26T23:21:45.642Z,21.33
2022-08-26T23:24:14.621Z,21.29
2022-08-26T23:26:43.367Z,21.28
2022-08-26T23:29:13.335Z,21.33
2022-08-26T23:31:42.956Z,21.32
2022-08-26T23:34:29.967Z,21.35
2022-08-26T23:36:59.196Z,21.26
2022-08-26T23:39:28.423Z,21.17
2022-08-26T23:41:56.966Z,21.10
2022-08-26T23:44:26.689Z,21.11
2022-08-26T23:46:55.349Z,21.10
2022-08-26T23:49:25.511Z,21.03
2022-08-26T23:52:11.784Z,21.11
2022-08-26T23:54:41.251Z,21.03
2022-08-26T23:57:09.791Z,21.06
2022-08-26T23:59:39.293Z,21.04
